Time;durP1;ratioP1;P1;durP2;ratioP2;P2;SDS_P1;SDS_P2;PMS_P1;PMS_P2;Temp;Humidity;BMP_temperature;BMP_pressure;BME280_temperature;BME280_humidity;BME280_pressure;Samples;Min_cycle;Max_cycle;Signal;HPM_P1;HPM_P2
2021/09/20 00:02:03;;;;;;;6.00;5.47;;;;;;;11.78;77.20;100264.25;10380505;28;20053;-74
2021/09/20 00:07:05;;;;;;;5.35;4.90;;;;;;;11.63;77.21;100255.06;10362846;28;20053;-73
2021/09/20 00:12:07;;;;;;;6.80;6.20;;;;;;;11.63;77.14;100260.31;10381193;28;20042;-73
2021/09/20 00:17:09;;;;;;;6.05;5.53;;;;;;;11.28;80.98;100254.41;10379802;28;20038;-73
2021/09/20 00:22:10;;;;;;;5.70;5.30;;;;;;;11.22;81.60;100259.00;10379786;28;20049;-73
2021/09/20 00:27:12;;;;;;;6.32;5.80;;;;;;;11.18;81.71;100255.59;10379133;28;20042;-73
2021/09/20 00:32:14;;;;;;;5.82;5.40;;;;;;;11.14;82.13;100253.13;10361711;28;20415;-73
2021/09/20 00:37:17;;;;;;;6.75;6.25;;;;;;;11.12;82.65;100253.19;10378844;28;20053;-73
2021/09/20 00:42:19;;;;;;;6.10;5.60;;;;;;;11.12;82.25;100253.19;10379686;28;20053;-73
2021/09/20 00:47:20;;;;;;;6.43;5.80;;;;;;;11.07;80.97;100250.69;10378859;28;20561;-73
2021/09/20 00:52:22;;;;;;;6.80;6.30;;;;;;;10.95;80.48;100242.31;10377904;28;20046;-73
2021/09/20 00:57:24;;;;;;;6.43;5.82;;;;;;;10.99;80.93;100246.56;10378689;28;20042;-73
2021/09/20 01:02:26;;;;;;;5.93;5.43;;;;;;;11.08;80.77;100236.63;10360520;28;20054;-74
2021/09/20 01:07:28;;;;;;;5.80;5.38;;;;;;;11.30;80.11;100239.44;10393508;22;20428;-71
2021/09/20 01:12:29;;;;;;;5.72;5.25;;;;;;;11.23;81.41;100239.69;10415481;28;20049;-71
2021/09/20 01:17:31;;;;;;;5.85;5.38;;;;;;;11.18;81.66;100244.22;10415119;28;20049;-71
2021/09/20 01:22:36;;;;;;;7.38;5.57;;;;;;;11.48;79.10;100248.53;10415182;28;20045;-71
2021/09/20 01:27:38;;;;;;;5.88;5.47;;;;;;;11.36;79.39;100248.91;10414862;28;20045;-72
2021/09/20 01:32:40;;;;;;;6.28;5.65;;;;;;;11.38;78.87;100249.75;10414868;28;20099;-71
2021/09/20 01:37:41;;;;;;;6.38;5.43;;;;;;;11.16;80.82;100257.44;10414840;28;20096;-72
2021/09/20 01:42:43;;;;;;;5.40;4.90;;;;;;;11.48;77.20;100258.19;10414496;28;20103;-71
2021/09/20 01:47:45;;;;;;;6.07;5.57;;;;;;;11.36;78.73;100264.69;10414005;28;20465;-71
2021/09/20 01:52:47;;;;;;;5.65;5.22;;;;;;;11.15;79.96;100263.59;10414989;28;20100;-71
2021/09/20 01:57:49;;;;;;;5.95;5.45;;;;;;;11.07;80.04;100265.63;10396685;28;20119;-71
2021/09/20 02:02:50;;;;;;;5.13;4.68;;;;;;;11.06;79.76;100258.59;10413864;28;20052;-71
2021/09/20 02:07:52;;;;;;;5.55;5.05;;;;;;;10.99;81.09;100260.56;10413589;28;20045;-71
2021/09/20 02:12:54;;;;;;;10.57;5.30;;;;;;;10.92;82.05;100255.53;10396062;28;20037;-71
2021/09/20 02:17:55;;;;;;;5.00;4.63;;;;;;;10.90;81.31;100258.22;10413591;28;20104;-71
2021/09/20 02:22:57;;;;;;;5.75;5.25;;;;;;;10.92;81.02;100261.66;10415474;28;20131;-72
2021/09/20 02:27:59;;;;;;;5.40;4.93;;;;;;;10.90;81.60;100266.09;10404155;28;20080;-72
2021/09/20 02:33:00;;;;;;;5.25;4.80;;;;;;;10.95;80.68;100265.97;10421819;28;20081;-72
2021/09/20 02:38:02;;;;;;;5.03;4.63;;;;;;;10.89;80.87;100274.91;10403443;28;20073;-72
2021/09/20 02:43:04;;;;;;;5.30;3.95;;;;;;;10.93;81.09;100275.66;10421603;28;20045;-72
2021/09/20 02:48:05;;;;;;;4.50;4.10;;;;;;;10.84;81.04;100280.28;10421159;28;20430;-72
2021/09/20 02:53:07;;;;;;;6.00;5.38;;;;;;;10.79;81.44;100276.06;10420984;28;20083;-72
2021/09/20 02:58:09;;;;;;;4.75;4.35;;;;;;;10.78;81.35;100280.47;10420667;28;20072;-72
2021/09/20 03:03:10;;;;;;;4.47;4.05;;;;;;;10.88;80.33;100283.69;10420649;28;20110;-72
2021/09/20 03:08:12;;;;;;;4.95;4.53;;;;;;;11.04;77.99;100279.69;10420266;28;20047;-72
2021/09/20 03:13:13;;;;;;;4.85;4.45;;;;;;;11.00;78.63;100280.69;10420210;28;20045;-72
2021/09/20 03:18:15;;;;;;;3.97;3.67;;;;;;;10.85;80.51;100284.66;10421291;28;20052;-72
2021/09/20 03:23:16;;;;;;;4.75;4.35;;;;;;;10.96;78.55;100286.97;10419862;28;20075;-72
2021/09/20 03:28:18;;;;;;;4.82;4.30;;;;;;;11.04;77.58;100294.63;10419473;28;20037;-72
2021/09/20 03:33:19;;;;;;;5.82;4.90;;;;;;;11.00;78.76;100296.47;10419376;28;20054;-72
2021/09/20 03:38:21;;;;;;;11.10;4.95;;;;;;;10.86;79.02;100298.66;10418650;28;20091;-72
2021/09/20 03:43:22;;;;;;;4.78;4.35;;;;;;;11.13;77.50;100301.38;10419205;28;20052;-72
2021/09/20 03:48:24;;;;;;;4.72;4.15;;;;;;;10.96;78.55;100300.09;10419212;28;20107;-72
2021/09/20 03:53:25;;;;;;;5.05;4.28;;;;;;;11.29;76.78;100298.25;10418516;28;20041;-72
2021/09/20 03:58:27;;;;;;;4.47;4.07;;;;;;;10.92;78.60;100303.72;10418688;28;20099;-72
2021/09/20 04:03:29;;;;;;;4.13;3.72;;;;;;;10.76;80.27;100302.47;10418197;28;20100;-72
2021/09/20 04:08:30;;;;;;;4.32;4.03;;;;;;;10.77;80.44;100314.69;10417878;28;20046;-72
2021/09/20 04:13:32;;;;;;;4.70;4.35;;;;;;;10.80;80.16;100310.22;10416047;28;20079;-72
2021/09/20 04:18:34;;;;;;;5.32;4.82;;;;;;;10.74;81.68;100317.41;10418388;28;20107;-72
2021/09/20 04:23:35;;;;;;;4.80;4.50;;;;;;;10.53;81.36;100317.06;10418163;28;20045;-72
2021/09/20 04:28:37;;;;;;;6.65;5.22;;;;;;;10.63;80.77;100322.13;10417749;28;20041;-72
2021/09/20 04:33:38;;;;;;;4.72;4.10;;;;;;;10.53;81.24;100329.34;10416891;28;20049;-72
2021/09/20 04:38:43;;;;;;;4.75;4.35;;;;;;;10.67;81.57;100322.00;10399940;28;20065;-72
2021/09/20 04:43:44;;;;;;;5.82;4.65;;;;;;;10.53;81.34;100332.84;10416618;28;20053;-72
2021/09/20 04:48:46;;;;;;;5.72;5.25;;;;;;;10.60;81.45;100330.94;10415383;28;20045;-72
2021/09/20 04:53:47;;;;;;;5.32;4.93;;;;;;;10.43;82.19;100338.41;10416767;28;20057;-72
2021/09/20 04:58:49;;;;;;;5.85;5.20;;;;;;;10.37;82.75;100344.69;10416408;28;20042;-72
2021/09/20 05:03:51;;;;;;;7.78;5.53;;;;;;;10.42;82.80;100344.56;10416081;28;20336;-72
2021/09/20 05:08:52;;;;;;;5.25;4.75;;;;;;;10.58;82.06;100356.38;10415897;28;20037;-71
2021/09/20 05:13:54;;;;;;;5.85;5.35;;;;;;;10.45;82.80;100360.28;10415566;28;20088;-72
2021/09/20 05:18:55;;;;;;;7.40;5.45;;;;;;;10.36;83.67;100366.63;10397422;28;20041;-71
2021/09/20 05:23:57;;;;;;;5.47;4.97;;;;;;;10.36;83.30;100371.88;10415381;28;20050;-71
2021/09/20 05:28:59;;;;;;;5.65;5.13;;;;;;;10.54;82.21;100370.53;10398902;28;20111;-71
2021/09/20 05:34:00;;;;;;;5.72;5.32;;;;;;;10.51;83.62;100381.97;10415089;28;20545;-71
2021/09/20 05:39:03;;;;;;;5.45;5.05;;;;;;;10.44;83.22;100379.53;10415481;28;20446;-71
2021/09/20 05:44:04;;;;;;;5.30;4.80;;;;;;;10.52;82.97;100383.69;10415054;28;20053;-71
2021/09/20 05:49:06;;;;;;;5.05;4.57;;;;;;;10.48;83.70;100389.06;10414250;28;20049;-71
2021/09/20 05:54:08;;;;;;;5.32;4.82;;;;;;;10.63;82.77;100398.34;10414504;28;20041;-71
2021/09/20 05:59:09;;;;;;;5.53;4.93;;;;;;;10.69;82.53;100406.06;10396552;28;20068;-71
2021/09/20 06:04:11;;;;;;;4.95;4.43;;;;;;;10.58;82.78;100409.84;10414169;28;20077;-72
2021/09/20 06:09:12;;;;;;;5.80;5.30;;;;;;;10.50;83.40;100409.19;10414599;28;20053;-72
2021/09/20 06:14:14;;;;;;;8.15;4.97;;;;;;;10.55;82.46;100401.16;10396269;28;20049;-72
2021/09/20 06:19:15;;;;;;;5.18;4.72;;;;;;;10.68;82.02;100404.34;10414400;28;20041;-71
2021/09/20 06:24:17;;;;;;;5.60;5.00;;;;;;;10.65;82.52;100414.94;10413720;28;20407;-70
2021/09/20 06:29:19;;;;;;;5.15;4.65;;;;;;;10.89;81.53;100414.31;10414085;28;20037;-71
2021/09/20 06:34:20;;;;;;;5.55;5.05;;;;;;;11.00;80.38;100419.25;10413589;28;20053;-70
2021/09/20 06:39:22;;;;;;;5.28;4.78;;;;;;;11.05;80.00;100425.25;10413389;28;20046;-71
2021/09/20 06:44:23;;;;;;;4.55;4.15;;;;;;;10.98;80.94;100427.19;10413269;28;20050;-71
2021/09/20 06:49:25;;;;;;;5.78;5.15;;;;;;;10.70;81.32;100424.41;10395893;28;20499;-70
2021/09/20 06:54:27;;;;;;;4.32;3.92;;;;;;;10.92;81.00;100424.72;10413302;28;20099;-72
2021/09/20 06:59:28;;;;;;;5.32;4.80;;;;;;;10.96;81.24;100426.34;10412841;28;20089;-71
2021/09/20 07:04:32;;;;;;;5.03;4.53;;;;;;;11.02;81.04;100428.84;10413016;28;20046;-71
2021/09/20 07:09:33;;;;;;;6.53;4.50;;;;;;;10.84;81.06;100429.31;10422114;22;20045;-74
2021/09/20 07:14:35;;;;;;;4.53;4.22;;;;;;;10.95;80.89;100440.44;10368930;28;20058;-73
2021/09/20 07:19:37;;;;;;;5.05;4.40;;;;;;;10.78;80.27;100437.38;10387422;28;20467;-72
2021/09/20 07:24:38;;;;;;;5.05;4.60;;;;;;;10.76;80.37;100442.69;10368034;28;20474;-73
2021/09/20 07:29:41;;;;;;;5.03;4.20;;;;;;;10.96;79.86;100444.78;10384957;28;20045;-72
2021/09/20 07:34:42;;;;;;;5.45;4.72;;;;;;;10.90;79.52;100451.97;10384590;28;20072;-73
2021/09/20 07:39:44;;;;;;;5.13;4.55;;;;;;;10.86;81.26;100459.09;10386229;28;20096;-72
2021/09/20 07:44:46;;;;;;;4.63;4.22;;;;;;;11.18;79.87;100462.63;10372878;28;20043;-73
2021/09/20 07:49:47;;;;;;;5.53;5.13;;;;;;;11.36;78.82;100472.63;10361341;28;20133;-72
2021/09/20 07:54:49;;;;;;;5.20;4.80;;;;;;;11.57;78.28;100471.16;10348825;28;20085;-72
2021/09/20 07:59:51;;;;;;;5.30;4.88;;;;;;;11.52;77.23;100475.69;10354792;28;20042;-72
2021/09/20 08:04:52;;;;;;;4.93;4.43;;;;;;;11.65;76.59;100484.13;10385412;28;20049;-73
2021/09/20 08:09:54;;;;;;;5.15;4.65;;;;;;;11.80;75.19;100479.25;10367285;28;20038;-73
2021/09/20 08:14:55;;;;;;;5.28;4.78;;;;;;;11.70;76.93;100487.47;10386031;28;20085;-73
2021/09/20 08:19:57;;;;;;;5.82;5.32;;;;;;;11.48;77.27;100492.50;10386143;28;20489;-72
2021/09/20 08:24:59;;;;;;;6.25;4.80;;;;;;;11.69;77.27;100491.03;10384607;28;20474;-72
2021/09/20 08:30:03;;;;;;;5.40;5.00;;;;;;;11.49;77.22;100492.44;10386236;28;20044;-73
2021/09/20 08:35:06;;;;;;;5.15;4.65;;;;;;;11.73;76.97;100488.25;10367439;28;20056;-73
2021/09/20 08:40:08;;;;;;;5.63;4.65;;;;;;;12.16;75.49;100480.84;10367424;28;20048;-73
2021/09/20 08:45:13;;;;;;;4.82;4.32;;;;;;;12.04;75.81;100485.59;10367544;28;20046;-73
2021/09/20 08:50:17;;;;;;;6.88;4.13;;;;;;;12.58;72.26;100486.53;10366104;28;20058;-71
2021/09/20 08:55:19;;;;;;;5.18;4.68;;;;;;;12.76;71.98;100487.69;10385206;28;20046;-72
2021/09/20 09:00:21;;;;;;;5.07;4.63;;;;;;;12.59;72.05;100491.75;10366679;28;20398;-71
2021/09/20 09:05:25;;;;;;;4.70;4.30;;;;;;;12.53;71.93;100491.97;10382800;28;20117;-72
2021/09/20 09:10:29;;;;;;;5.00;4.32;;;;;;;12.39;70.46;100494.16;10381357;28;20050;-72
2021/09/20 09:15:32;;;;;;;4.90;4.20;;;;;;;12.58;70.52;100497.09;10381999;28;20057;-72
2021/09/20 09:20:37;;;;;;;8.40;3.85;;;;;;;12.68;70.71;100505.53;10347822;28;20458;-72
2021/09/20 09:25:42;;;;;;;4.85;4.35;;;;;;;13.38;68.73;100505.81;10363646;28;20060;-72
2021/09/20 09:30:47;;;;;;;6.63;3.90;;;;;;;13.21;68.73;100503.72;10362512;28;20048;-72
2021/09/20 09:35:52;;;;;;;3.63;3.33;;;;;;;13.01;68.76;100503.53;10379984;28;20533;-72
2021/09/20 09:40:59;;;;;;;6.38;4.10;;;;;;;13.33;68.02;100503.31;10380473;28;20092;-71
2021/09/20 09:46:17;;;;;;;7.25;3.60;;;;;;;13.57;66.49;100504.22;10363945;28;20076;-72
2021/09/20 09:51:19;;;;;;;3.50;2.63;;;;;;;13.65;65.40;100521.56;10364163;28;20104;-71
2021/09/20 09:56:25;;;;;;;4.40;3.60;;;;;;;13.77;64.58;100515.84;10364337;28;20054;-72
2021/09/20 10:01:33;;;;;;;4.03;3.58;;;;;;;13.86;65.29;100518.13;10361091;28;20107;-74
2021/09/20 10:06:44;;;;;;;3.90;3.40;;;;;;;14.14;63.18;100512.66;10358768;28;20042;-72
2021/09/20 10:11:48;;;;;;;4.80;4.20;;;;;;;13.95;65.09;100516.94;10375612;28;20479;-73
2021/09/20 10:16:53;;;;;;;4.20;3.80;;;;;;;13.92;64.22;100514.38;10377452;28;20237;-74
2021/09/20 10:21:55;;;;;;;4.60;3.97;;;;;;;13.61;65.08;100515.53;10376776;28;20050;-73
2021/09/20 10:26:57;;;;;;;4.25;3.60;;;;;;;13.75;65.75;100509.72;10377907;28;20041;-73
2021/09/20 10:32:00;;;;;;;5.57;4.50;;;;;;;13.68;64.04;100513.50;10360900;28;20050;-72
2021/09/20 10:37:09;;;;;;;5.47;4.80;;;;;;;13.67;63.68;100510.00;10376826;28;20042;-71
2021/09/20 10:42:31;;;;;;;5.70;4.45;;;;;;;13.79;63.10;100513.97;10374547;28;20034;-72
2021/09/20 10:47:47;;;;;;;4.70;4.30;;;;;;;14.11;64.13;100512.75;10363327;28;20116;-74
2021/09/20 10:53:22;;;;;;;5.50;5.00;;;;;;;14.06;62.38;100520.00;10382362;28;20088;-74
2021/09/20 10:58:23;;;;;;;6.35;5.78;;;;;;;14.01;62.77;100514.03;10384806;28;20042;-73
2021/09/20 11:03:48;;;;;;;6.38;5.88;;;;;;;14.04;61.21;100511.28;10384777;28;20495;-72
2021/09/20 11:09:01;;;;;;;7.30;5.00;;;;;;;14.02;61.57;100510.47;10366928;28;20084;-74
2021/09/20 11:14:05;;;;;;;5.50;5.03;;;;;;;13.99;62.19;100511.47;10369718;28;20058;-73
2021/09/20 11:19:31;;;;;;;6.97;6.18;;;;;;;14.31;60.79;100512.84;10370384;28;20129;-74
2021/09/20 11:24:52;;;;;;;6.18;5.70;;;;;;;14.33;62.21;100512.78;10346233;28;20065;-74
2021/09/20 11:30:01;;;;;;;7.25;6.05;;;;;;;14.41;58.62;100510.69;10388592;28;20092;-73
2021/09/20 11:35:04;;;;;;;6.88;6.28;;;;;;;14.37;59.40;100520.53;10388096;28;20491;-73
2021/09/20 11:40:17;;;;;;;7.07;6.57;;;;;;;14.57;58.37;100525.06;10368991;28;20140;-74
2021/09/20 11:45:30;;;;;;;6.75;6.25;;;;;;;14.47;56.60;100523.66;10368695;28;20054;-73
2021/09/20 11:50:36;;;;;;;7.00;6.55;;;;;;;14.39;57.27;100521.34;10370508;28;20045;-73
2021/09/20 11:55:40;;;;;;;6.15;5.65;;;;;;;14.53;56.26;100518.19;10386352;28;20045;-72
2021/09/20 12:00:46;;;;;;;7.18;6.78;;;;;;;14.68;57.66;100532.56;10386945;28;20566;-72
2021/09/20 12:05:49;;;;;;;9.47;8.53;;;;;;;14.66;59.07;100531.78;10386858;28;20042;-75
2021/09/20 12:10:53;;;;;;;7.95;7.25;;;;;;;14.19;57.43;100536.25;10385914;28;20121;-73
2021/09/20 12:16:01;;;;;;;6.65;6.13;;;;;;;14.57;54.22;100529.50;10385221;28;20415;-73
2021/09/20 12:21:09;;;;;;;7.25;6.65;;;;;;;14.68;55.48;100526.41;10384620;28;20415;-72
2021/09/20 12:26:13;;;;;;;8.27;7.68;;;;;;;14.42;56.53;100528.28;10384062;28;20468;-73
2021/09/20 12:31:20;;;;;;;7.57;6.85;;;;;;;14.41;56.41;100528.34;10382443;28;20415;-71
2021/09/20 12:36:27;;;;;;;5.18;4.72;;;;;;;14.42;54.72;100536.22;10365000;28;20104;-72
2021/09/20 12:41:58;;;;;;;4.88;4.38;;;;;;;14.33;55.60;100541.88;10383779;28;20455;-73
2021/09/20 12:47:06;;;;;;;4.75;4.35;;;;;;;14.34;55.60;100543.59;10383080;28;20052;-73
2021/09/20 12:52:29;;;;;;;2.70;2.50;;;;;;;14.34;54.10;100546.22;10383152;28;20045;-73
2021/09/20 12:57:52;;;;;;;3.72;2.97;;;;;;;14.12;55.24;100549.72;10381324;28;20133;-72
2021/09/20 13:03:31;;;;;;;4.50;2.67;;;;;;;14.04;54.44;100550.94;10381049;28;20060;-75
2021/09/20 13:08:33;;;;;;;2.40;2.05;;;;;;;13.86;56.43;100552.50;10200215;29;20067;-74
2021/09/20 13:13:38;;;;;;;2.88;1.70;;;;;;;13.72;56.62;100552.09;10391745;23;20062;-69
2021/09/20 13:18:41;;;;;;;2.13;1.83;;;;;;;13.72;56.49;100554.75;10417801;28;20041;-69
2021/09/20 13:23:45;;;;;;;2.22;1.60;;;;;;;13.52;57.11;100551.06;10417183;28;20495;-69
2021/09/20 13:28:48;;;;;;;6.28;2.08;;;;;;;13.69;55.49;100552.25;10417013;28;20044;-69
2021/09/20 13:33:50;;;;;;;2.92;1.80;;;;;;;13.58;56.12;100561.38;10417779;28;20055;-69
2021/09/20 13:38:52;;;;;;;2.10;1.90;;;;;;;13.62;56.87;100562.16;10415015;28;20042;-69
2021/09/20 13:43:54;;;;;;;2.17;1.85;;;;;;;13.59;57.45;100562.25;10414679;28;20053;-69
2021/09/20 13:48:56;;;;;;;5.30;2.97;;;;;;;13.59;56.58;100572.81;10416799;28;20514;-69
2021/09/20 13:53:58;;;;;;;2.75;1.77;;;;;;;13.53;56.83;100575.69;10406617;28;20043;-69
2021/09/20 13:58:59;;;;;;;2.03;1.83;;;;;;;13.55;56.82;100579.16;10417025;28;20483;-69
2021/09/20 14:04:01;;;;;;;2.38;1.90;;;;;;;13.33;58.61;100574.63;10392358;28;20577;-69
2021/09/20 14:09:03;;;;;;;3.03;1.75;;;;;;;13.48;60.23;100581.13;10381360;28;20042;-69
2021/09/20 14:14:04;;;;;;;4.13;2.45;;;;;;;13.49;60.36;100585.50;10416548;28;20104;-70
2021/09/20 14:19:06;;;;;;;2.15;1.95;;;;;;;13.51;58.55;100586.31;10424965;28;20068;-70
2021/09/20 14:24:08;;;;;;;2.75;1.80;;;;;;;13.51;57.60;100580.19;10426776;28;20107;-70
2021/09/20 14:29:09;;;;;;;2.03;1.80;;;;;;;13.56;57.93;100589.66;10428278;28;20041;-70
2021/09/20 14:34:11;;;;;;;4.53;1.90;;;;;;;13.48;57.82;100583.78;10428832;28;20049;-70
2021/09/20 14:39:13;;;;;;;1.98;1.63;;;;;;;13.30;58.79;100587.06;10409799;28;20041;-70
2021/09/20 14:44:14;;;;;;;3.85;2.45;;;;;;;13.36;59.58;100582.41;10426162;28;20096;-72
2021/09/20 14:49:17;;;;;;;5.25;1.67;;;;;;;13.47;59.35;100591.75;10425390;28;20045;-70
2021/09/20 14:54:19;;;;;;;2.97;1.67;;;;;;;13.47;58.26;100595.25;10422930;28;20049;-70
2021/09/20 14:59:21;;;;;;;1.60;1.30;;;;;;;13.50;57.18;100597.81;10426028;28;20128;-70
2021/09/20 15:04:22;;;;;;;1.98;1.30;;;;;;;13.40;58.78;100592.88;10402315;28;20406;-70
2021/09/20 15:09:24;;;;;;;2.03;1.48;;;;;;;13.20;57.88;100606.75;10420536;28;20037;-70
2021/09/20 15:14:25;;;;;;;3.55;1.58;;;;;;;13.14;58.58;100616.56;10419882;28;20227;-70
2021/09/20 15:19:27;;;;;;;2.38;1.88;;;;;;;13.44;56.17;100619.13;10420349;28;20099;-70
2021/09/20 15:24:29;;;;;;;2.30;1.73;;;;;;;13.52;57.17;100627.66;10421248;28;20045;-70
2021/09/20 15:29:31;;;;;;;2.03;1.80;;;;;;;13.29;58.06;100625.81;10423342;28;20037;-70
2021/09/20 15:34:33;;;;;;;2.83;1.70;;;;;;;13.45;57.42;100620.84;10402690;28;20111;-71
2021/09/20 15:39:35;;;;;;;2.45;1.58;;;;;;;13.34;58.48;100629.16;10421113;28;20384;-70
2021/09/20 15:44:36;;;;;;;2.83;2.13;;;;;;;13.24;58.93;100627.72;10421670;28;20054;-70
2021/09/20 15:49:38;;;;;;;2.22;2.03;;;;;;;13.42;57.62;100634.19;10421303;28;20545;-70
2021/09/20 15:54:40;;;;;;;2.22;1.70;;;;;;;13.50;57.93;100633.88;10420504;28;20053;-70
2021/09/20 15:59:41;;;;;;;2.72;1.92;;;;;;;13.29;59.13;100648.69;10420856;28;20069;-69
2021/09/20 16:04:43;;;;;;;1.98;1.77;;;;;;;13.30;58.83;100645.13;10420090;28;20107;-70
2021/09/20 16:09:44;;;;;;;2.45;2.25;;;;;;;13.25;59.37;100652.34;10419132;28;20045;-70
2021/09/20 16:14:46;;;;;;;3.08;2.47;;;;;;;13.20;60.05;100657.75;10419363;28;20053;-70
2021/09/20 16:19:49;;;;;;;4.50;2.60;;;;;;;13.05;60.37;100655.59;10418701;28;20509;-69
2021/09/20 16:24:50;;;;;;;2.67;1.90;;;;;;;13.22;60.39;100663.88;10400670;28;20093;-69
2021/09/20 16:29:54;;;;;;;2.67;2.20;;;;;;;13.06;60.99;100666.13;10385026;28;20140;-69
2021/09/20 16:34:57;;;;;;;2.78;2.55;;;;;;;13.11;60.97;100681.81;10419988;28;20053;-68
2021/09/20 16:39:59;;;;;;;2.97;2.70;;;;;;;13.21;60.10;100680.59;10418164;28;20552;-70
2021/09/20 16:45:05;;;;;;;2.60;2.28;;;;;;;12.95;62.54;100672.63;10422809;28;20491;-69
2021/09/20 16:50:07;;;;;;;3.20;2.60;;;;;;;12.70;64.07;100685.72;10402730;28;20483;-68
2021/09/20 16:55:10;;;;;;;3.15;2.17;;;;;;;12.93;62.24;100691.16;10400281;28;20045;-69
2021/09/20 17:00:12;;;;;;;2.25;1.83;;;;;;;13.00;60.80;100697.09;10415998;28;20041;-69
2021/09/20 17:05:14;;;;;;;4.00;2.60;;;;;;;12.68;63.87;100693.69;10416679;28;20056;-69
2021/09/20 17:10:16;;;;;;;2.97;2.50;;;;;;;12.57;63.96;100707.19;10416465;28;20041;-70
2021/09/20 17:15:19;;;;;;;3.67;2.53;;;;;;;12.50;64.87;100716.19;10415981;28;20041;-69
2021/09/20 17:20:21;;;;;;;3.97;2.38;;;;;;;12.39;66.46;100710.34;10417129;28;20446;-69
2021/09/20 17:25:22;;;;;;;3.15;2.78;;;;;;;12.35;67.26;100717.50;10398141;28;20103;-70
2021/09/20 17:30:25;;;;;;;5.72;3.20;;;;;;;12.45;66.38;100714.59;10415566;28;20115;-69
2021/09/20 17:35:28;;;;;;;4.05;2.67;;;;;;;12.37;68.20;100720.06;10416631;28;20049;-69
2021/09/20 17:40:34;;;;;;;3.38;3.10;;;;;;;12.32;69.73;100727.25;10407581;28;20092;-69
2021/09/20 17:45:36;;;;;;;5.18;3.83;;;;;;;12.40;69.76;100732.31;10376814;28;20060;-69
2021/09/20 17:50:38;;;;;;;4.50;4.10;;;;;;;12.33;70.37;100736.88;10377373;28;20096;-69
2021/09/20 17:55:40;;;;;;;5.43;4.10;;;;;;;12.33;71.48;100745.66;10395987;28;20040;-69
2021/09/20 18:00:42;;;;;;;3.92;3.63;;;;;;;12.47;70.94;100755.81;10415562;28;20045;-69
2021/09/20 18:05:44;;;;;;;4.55;4.15;;;;;;;12.52;70.22;100748.63;10415957;28;20046;-70
2021/09/20 18:10:46;;;;;;;5.50;5.10;;;;;;;12.29;70.98;100748.41;10396040;28;20091;-70
2021/09/20 18:15:48;;;;;;;7.20;6.50;;;;;;;12.20;71.67;100757.44;10374225;28;20042;-69
2021/09/20 18:20:49;;;;;;;6.47;5.90;;;;;;;12.24;72.09;100764.38;10375701;28;20045;-70
2021/09/20 18:25:51;;;;;;;8.23;5.60;;;;;;;12.21;72.69;100772.34;10378695;28;20049;-69
2021/09/20 18:30:53;;;;;;;6.75;6.25;;;;;;;12.10;73.20;100775.28;10378993;28;20042;-68
2021/09/20 18:35:55;;;;;;;6.40;5.80;;;;;;;11.97;73.95;100781.78;10379596;28;20049;-69
2021/09/20 18:41:00;;;;;;;7.50;6.80;;;;;;;12.05;74.02;100790.34;10379227;28;20177;-69
2021/09/20 18:46:02;;;;;;;7.32;6.72;;;;;;;12.26;72.59;100795.94;10378798;28;20088;-69
2021/09/20 18:51:06;;;;;;;8.60;7.80;;;;;;;12.14;73.01;100791.00;10377507;28;20042;-69
2021/09/20 18:56:10;;;;;;;7.47;6.88;;;;;;;12.19;71.80;100797.88;10379671;28;20045;-69
2021/09/20 19:01:12;;;;;;;7.43;6.78;;;;;;;12.17;72.22;100799.69;10379687;28;20443;-68
2021/09/20 19:06:14;;;;;;;12.00;11.10;;;;;;;11.96;73.06;100811.66;10378433;28;20462;-70
2021/09/20 19:11:15;;;;;;;10.43;9.60;;;;;;;11.71;75.44;100806.09;10396766;22;20045;-73
2021/09/20 19:16:17;;;;;;;10.18;9.27;;;;;;;11.57;77.93;100824.00;10381475;28;20116;-73
2021/09/20 19:21:21;;;;;;;8.95;7.28;;;;;;;11.93;75.77;100819.63;10381228;28;20496;-73
2021/09/20 19:26:23;;;;;;;10.77;9.95;;;;;;;12.16;72.88;100821.69;10364747;28;20529;-73
2021/09/20 19:31:25;;;;;;;9.35;8.55;;;;;;;11.99;73.30;100823.88;10364095;28;20100;-73
2021/09/20 19:36:27;;;;;;;7.60;6.90;;;;;;;11.70;76.01;100830.69;10364824;28;20113;-73
2021/09/20 19:41:29;;;;;;;9.20;7.32;;;;;;;11.62;77.23;100820.34;10366158;28;20447;-74
2021/09/20 19:46:30;;;;;;;7.25;6.65;;;;;;;11.55;77.91;100828.41;10365058;28;20045;-73
2021/09/20 19:51:37;;;;;;;8.57;7.57;;;;;;;11.67;77.84;100829.91;10362880;28;20462;-73
2021/09/20 19:56:39;;;;;;;7.78;6.90;;;;;;;11.59;77.86;100835.34;10364345;28;20038;-73
2021/09/20 20:01:41;;;;;;;8.25;7.55;;;;;;;11.51;78.82;100839.91;10381249;28;20042;-72
2021/09/20 20:06:43;;;;;;;7.40;6.70;;;;;;;11.52;78.98;100834.63;10379172;28;20069;-73
2021/09/20 20:11:47;;;;;;;7.30;6.57;;;;;;;11.86;75.32;100841.75;10379760;28;20562;-73
2021/09/20 20:16:53;;;;;;;7.55;6.82;;;;;;;11.56;77.13;100841.56;10363728;28;20403;-72
2021/09/20 20:21:56;;;;;;;8.77;7.63;;;;;;;11.35;80.30;100849.94;10362248;28;20120;-73
2021/09/20 20:26:57;;;;;;;8.27;7.32;;;;;;;11.22;81.34;100853.72;10361827;28;20080;-72
2021/09/20 20:31:59;;;;;;;7.22;6.55;;;;;;;11.44;79.70;100864.66;10379121;28;20041;-73
2021/09/20 20:37:01;;;;;;;6.90;6.40;;;;;;;11.57;77.23;100861.72;10361436;28;20383;-73
2021/09/20 20:42:03;;;;;;;7.65;7.05;;;;;;;11.58;77.87;100863.44;10379135;28;20049;-73
2021/09/20 20:47:06;;;;;;;7.60;6.90;;;;;;;11.48;78.32;100875.09;10379105;28;20045;-73
2021/09/20 20:52:08;;;;;;;7.60;7.00;;;;;;;11.44;79.24;100878.69;10377988;28;20053;-72
2021/09/20 20:57:10;;;;;;;7.75;7.05;;;;;;;11.33;80.33;100883.28;10379392;28;20065;-72
2021/09/20 21:02:11;;;;;;;6.85;6.28;;;;;;;11.28;81.28;100886.03;10379693;28;20056;-74
2021/09/20 21:07:13;;;;;;;7.10;6.50;;;;;;;11.53;77.87;100886.38;10378891;28;20105;-73
2021/09/20 21:12:15;;;;;;;7.15;6.63;;;;;;;11.30;79.96;100892.16;10377174;28;20447;-72
2021/09/20 21:17:17;;;;;;;6.45;5.95;;;;;;;11.18;81.73;100902.06;10360474;28;20136;-72
2021/09/20 21:22:18;;;;;;;7.07;6.40;;;;;;;11.11;82.80;100894.31;10359941;28;20050;-73
2021/09/20 21:27:20;;;;;;;6.43;5.93;;;;;;;11.04;82.37;100899.72;10378264;28;20458;-73
2021/09/20 21:32:22;;;;;;;7.47;6.97;;;;;;;11.02;83.16;100905.00;10377187;28;20038;-73
2021/09/20 21:37:23;;;;;;;7.05;6.30;;;;;;;11.01;82.73;100908.50;10377603;28;20045;-72
2021/09/20 21:42:25;;;;;;;6.57;6.13;;;;;;;11.05;82.26;100904.06;10376377;28;20179;-72
2021/09/20 21:47:26;;;;;;;6.45;5.95;;;;;;;11.05;81.91;100899.66;10359959;28;20096;-72
2021/09/20 21:52:28;;;;;;;6.47;5.93;;;;;;;11.36;80.27;100915.69;10377900;28;20092;-71
2021/09/20 21:57:29;;;;;;;6.78;6.18;;;;;;;11.23;80.61;100914.22;10377065;28;20050;-72
2021/09/20 22:02:31;;;;;;;7.30;6.72;;;;;;;11.32;79.89;100914.03;10378729;28;20389;-73
2021/09/20 22:07:33;;;;;;;5.63;5.10;;;;;;;11.36;80.22;100910.44;10377748;28;20069;-73
2021/09/20 22:12:35;;;;;;;6.07;5.57;;;;;;;11.36;80.82;100918.31;10378756;28;20049;-73
2021/09/20 22:17:38;;;;;;;5.70;5.20;;;;;;;11.43;80.19;100926.13;10371687;28;20076;-73
2021/09/20 22:22:41;;;;;;;6.65;6.07;;;;;;;11.35;81.32;100915.75;10373882;28;20038;-72
2021/09/20 22:27:43;;;;;;;6.32;5.82;;;;;;;11.13;83.78;100924.97;10381428;28;20068;-72
2021/09/20 22:32:45;;;;;;;6.70;6.18;;;;;;;11.34;82.64;100930.66;10376381;28;20046;-74
2021/09/20 22:37:47;;;;;;;6.85;6.35;;;;;;;11.20;82.71;100935.34;10374946;28;20050;-72
2021/09/20 22:43:10;;;;;;;6.30;5.80;;;;;;;11.16;83.72;100930.19;10383599;28;20545;-72
2021/09/20 22:48:12;;;;;;;7.25;6.60;;;;;;;11.37;82.61;100927.94;10385866;28;20053;-73
2021/09/20 22:53:14;;;;;;;6.53;6.03;;;;;;;11.20;83.80;100937.97;10368174;28;20133;-73
2021/09/20 22:58:15;;;;;;;6.25;5.75;;;;;;;11.22;83.08;100940.56;10369045;28;20073;-72
2021/09/20 23:03:17;;;;;;;6.38;5.88;;;;;;;11.01;84.55;100929.56;10365175;28;20045;-72
2021/09/20 23:08:19;;;;;;;7.40;5.88;;;;;;;10.88;85.89;100938.56;10383393;28;20042;-73
2021/09/20 23:13:20;;;;;;;6.70;6.15;;;;;;;10.93;85.73;100927.97;10365394;28;20054;-73